sensor_id;sensor_type;location;lat;lon;timestamp;pressure;altitude;pressure_sealevel;temperature;humidity
69780;BME280;57052;55.602;38.096;2023-03-20T17:58:28;100325.47;;;4.57;54.91
69780;BME280;57052;55.602;38.096;2023-03-20T18:00:54;100321.06;;;4.62;55.74
69780;BME280;57052;55.602;38.096;2023-03-20T18:03:20;100315.97;;;4.72;56.74
69780;BME280;57052;55.602;38.096;2023-03-20T18:05:50;100314.13;;;4.84;56.91
69780;BME280;57052;55.602;38.096;2023-03-20T18:08:20;100308.19;;;4.94;56.20
69780;BME280;57052;55.602;38.096;2023-03-20T18:10:47;100309.19;;;5.11;56.91
69780;BME280;57052;55.602;38.096;2023-03-20T18:13:12;100311.88;;;5.23;56.45
69780;BME280;57052;55.602;38.096;2023-03-20T18:15:38;100300.66;;;5.26;56.94
69780;BME280;57052;55.602;38.096;2023-03-20T18:18:06;100308.81;;;5.42;56.48
69780;BME280;57052;55.602;38.096;2023-03-20T18:20:35;100306.72;;;5.56;56.19
69780;BME280;57052;55.602;38.096;2023-03-20T18:23:02;100298.28;;;5.64;55.93
69780;BME280;57052;55.602;38.096;2023-03-20T18:25:28;100292.72;;;5.65;56.26
69780;BME280;57052;55.602;38.096;2023-03-20T18:27:55;100304.50;;;5.76;55.93
69780;BME280;57052;55.602;38.096;2023-03-20T18:30:23;100295.72;;;5.80;55.48
69780;BME280;57052;55.602;38.096;2023-03-20T18:32:50;100297.72;;;5.85;55.68
69780;BME280;57052;55.602;38.096;2023-03-20T18:35:16;100279.81;;;5.79;55.53
69780;BME280;57052;55.602;38.096;2023-03-20T18:37:42;100295.97;;;5.91;55.59
69780;BME280;57052;55.602;38.096;2023-03-20T18:40:49;100297.25;;;5.88;53.85
69780;BME280;57052;55.602;38.096;2023-03-20T18:43:11;100266.06;;;5.75;55.47
69780;BME280;57052;55.602;38.096;2023-03-20T18:45:37;100292.56;;;5.95;55.38
69780;BME280;57052;55.602;38.096;2023-03-20T18:48:06;100280.53;;;5.98;55.09
69780;BME280;57052;55.602;38.096;2023-03-20T18:50:36;100292.41;;;6.02;55.07
69780;BME280;57052;55.602;38.096;2023-03-20T18:53:06;100288.69;;;6.03;54.88
69780;BME280;57052;55.602;38.096;2023-03-20T18:55:32;100271.63;;;5.97;55.20
69780;BME280;57052;55.602;38.096;2023-03-20T18:57:58;100286.31;;;6.06;55.29
69780;BME280;57052;55.602;38.096;2023-03-20T19:00:38;100287.13;;;6.07;54.69
69780;BME280;57052;55.602;38.096;2023-03-20T19:03:08;100281.53;;;6.08;54.47
69780;BME280;57052;55.602;38.096;2023-03-20T19:05:35;100279.44;;;6.10;54.83
69780;BME280;57052;55.602;38.096;2023-03-20T19:08:01;100274.88;;;6.11;54.55
69780;BME280;57052;55.602;38.096;2023-03-20T19:10:32;100273.81;;;6.12;54.72
69780;BME280;57052;55.602;38.096;2023-03-20T19:13:01;100278.13;;;6.13;54.67
69780;BME280;57052;55.602;38.096;2023-03-20T19:15:28;100277.31;;;6.12;54.37
69780;BME280;57052;55.602;38.096;2023-03-20T19:17:54;100262.94;;;6.07;54.49
69780;BME280;57052;55.602;38.096;2023-03-20T19:20:35;100273.22;;;6.10;53.13
69780;BME280;57052;55.602;38.096;2023-03-20T19:23:03;100273.59;;;6.13;54.08
69780;BME280;57052;55.602;38.096;2023-03-20T19:25:30;100271.69;;;6.14;54.00
69780;BME280;57052;55.602;38.096;2023-03-20T19:27:55;100266.09;;;6.15;54.33
69780;BME280;57052;55.602;38.096;2023-03-20T19:30:27;100260.16;;;6.13;53.84
69780;BME280;57052;55.602;38.096;2023-03-20T19:32:54;100267.97;;;6.15;54.60
69780;BME280;57052;55.602;38.096;2023-03-20T19:35:20;100270.38;;;6.16;54.45
69780;BME280;57052;55.602;38.096;2023-03-20T19:37:46;100261.53;;;6.16;54.45
69780;BME280;57052;55.602;38.096;2023-03-20T19:42:56;100258.59;;;6.17;54.23
69780;BME280;57052;55.602;38.096;2023-03-20T19:45:27;100241.81;;;6.10;53.68
69780;BME280;57052;55.602;38.096;2023-03-20T19:47:52;100251.09;;;6.19;54.27
69780;BME280;57052;55.602;38.096;2023-03-20T19:50:34;100251.34;;;6.18;53.47
69780;BME280;57052;55.602;38.096;2023-03-20T19:53:02;100240.50;;;6.13;53.91
69780;BME280;57052;55.602;38.096;2023-03-20T19:55:28;100237.00;;;6.12;54.21
69780;BME280;57052;55.602;38.096;2023-03-20T19:57:54;100242.00;;;6.20;54.09
69780;BME280;57052;55.602;38.096;2023-03-20T20:00:23;100243.88;;;6.20;53.98
69780;BME280;57052;55.602;38.096;2023-03-20T20:02:50;100233.50;;;6.12;54.10
69780;BME280;57052;55.602;38.096;2023-03-20T20:05:23;100233.94;;;6.20;53.23
69780;BME280;57052;55.602;38.096;2023-03-20T20:07:51;100240.94;;;6.21;53.74
69780;BME280;57052;55.602;38.096;2023-03-20T20:10:17;100236.28;;;6.17;53.58
69780;BME280;57052;55.602;38.096;2023-03-20T20:12:46;100232.28;;;6.19;53.79
69780;BME280;57052;55.602;38.096;2023-03-20T20:15:12;100220.63;;;6.14;53.82
69780;BME280;57052;55.602;38.096;2023-03-20T20:17:38;100219.41;;;6.21;53.61
69780;BME280;57052;55.602;38.096;2023-03-20T20:20:04;100211.25;;;6.16;53.68
69780;BME280;57052;55.602;38.096;2023-03-20T20:22:30;100217.56;;;6.22;54.05
69780;BME280;57052;55.602;38.096;2023-03-20T20:24:56;100214.03;;;6.21;53.76
69780;BME280;57052;55.602;38.096;2023-03-20T20:27:22;100205.97;;;6.21;53.81
69780;BME280;57052;55.602;38.096;2023-03-20T20:29:49;100207.06;;;6.20;53.55
69780;BME280;57052;55.602;38.096;2023-03-20T20:32:18;100205.97;;;6.21;53.78
69780;BME280;57052;55.602;38.096;2023-03-20T20:34:45;100207.63;;;6.22;53.62
69780;BME280;57052;55.602;38.096;2023-03-20T20:37:10;100194.09;;;6.17;53.86
69780;BME280;57052;55.602;38.096;2023-03-20T20:39:37;100200.88;;;6.20;53.80
69780;BME280;57052;55.602;38.096;2023-03-20T20:42:03;100199.00;;;6.20;53.76
69780;BME280;57052;55.602;38.096;2023-03-20T20:44:28;100203.28;;;6.21;53.90
69780;BME280;57052;55.602;38.096;2023-03-20T20:46:54;100200.59;;;6.21;54.21
69780;BME280;57052;55.602;38.096;2023-03-20T20:49:20;100201.44;;;6.22;53.98
69780;BME280;57052;55.602;38.096;2023-03-20T20:51:46;100184.16;;;6.18;53.75
69780;BME280;57052;55.602;38.096;2023-03-20T20:54:12;100183.59;;;6.16;53.90
69780;BME280;57052;55.602;38.096;2023-03-20T20:56:38;100188.00;;;6.22;53.78
69780;BME280;57052;55.602;38.096;2023-03-20T20:59:04;100185.56;;;6.20;53.94
69780;BME280;57052;55.602;38.096;2023-03-20T21:01:30;100177.50;;;6.20;53.80
69780;BME280;57052;55.602;38.096;2023-03-20T21:03:55;100175.53;;;6.16;53.82
69780;BME280;57052;55.602;38.096;2023-03-20T21:06:21;100183.91;;;6.19;53.82
69780;BME280;57052;55.602;38.096;2023-03-20T21:08:46;100171.56;;;6.18;53.93
69780;BME280;57052;55.602;38.096;2023-03-20T21:11:12;100162.91;;;6.16;53.73
69780;BME280;57052;55.602;38.096;2023-03-20T21:13:38;100170.47;;;6.19;53.90
69780;BME280;57052;55.602;38.096;2023-03-20T21:16:04;100175.03;;;6.19;53.81
69780;BME280;57052;55.602;38.096;2023-03-20T21:18:30;100166.41;;;6.17;54.27
69780;BME280;57052;55.602;38.096;2023-03-20T21:21:03;100139.16;;;5.97;53.30
69780;BME280;57052;55.602;38.096;2023-03-20T21:23:29;100167.22;;;6.17;54.31
69780;BME280;57052;55.602;38.096;2023-03-20T21:25:55;100169.91;;;6.17;54.41
69780;BME280;57052;55.602;38.096;2023-03-20T21:28:20;100145.28;;;6.09;54.31
69780;BME280;57052;55.602;38.096;2023-03-20T21:30:46;100163.72;;;6.17;53.98
69780;BME280;57052;55.602;38.096;2023-03-20T21:33:11;100156.94;;;6.14;53.73
69780;BME280;57052;55.602;38.096;2023-03-20T21:35:37;100164.19;;;6.14;53.77
69780;BME280;57052;55.602;38.096;2023-03-20T21:38:04;100135.53;;;6.03;53.85
69780;BME280;57052;55.602;38.096;2023-03-20T21:40:30;100149.38;;;6.11;54.38
69780;BME280;57052;55.602;38.096;2023-03-20T21:42:55;100150.75;;;6.14;53.94
69780;BME280;57052;55.602;38.096;2023-03-20T21:45:22;100148.06;;;6.14;54.18
69780;BME280;57052;55.602;38.096;2023-03-20T21:47:48;100136.09;;;6.05;53.91
69780;BME280;57052;55.602;38.096;2023-03-20T21:50:13;100141.91;;;6.13;53.64
69780;BME280;57052;55.602;38.096;2023-03-20T21:52:39;100147.03;;;6.15;53.97
69780;BME280;57052;55.602;38.096;2023-03-20T21:55:06;100119.72;;;6.06;53.70
69780;BME280;57052;55.602;38.096;2023-03-20T21:57:31;100147.03;;;6.15;53.96
69780;BME280;57052;55.602;38.096;2023-03-20T21:59:57;100133.59;;;6.15;53.90
69780;BME280;57052;55.602;38.096;2023-03-20T22:02:22;100130.91;;;6.15;54.11
69780;BME280;57052;55.602;38.096;2023-03-20T22:04:48;100130.06;;;6.14;53.65
69780;BME280;57052;55.602;38.096;2023-03-20T22:07:14;100134.41;;;6.15;54.04
69780;BME280;57052;55.602;38.096;2023-03-20T22:09:39;100119.31;;;6.14;53.76
69780;BME280;57052;55.602;38.096;2023-03-20T22:12:06;100117.47;;;6.15;53.91
69780;BME280;57052;55.602;38.096;2023-03-20T22:14:31;100119.09;;;6.16;54.14
69780;BME280;57052;55.602;38.096;2023-03-20T22:16:57;100111.84;;;6.16;54.11
69780;BME280;57052;55.602;38.096;2023-03-20T22:19:23;100112.09;;;6.15;53.92
69780;BME280;57052;55.602;38.096;2023-03-20T22:21:48;100103.13;;;6.09;54.04
69780;BME280;57052;55.602;38.096;2023-03-20T22:24:14;100108.56;;;6.14;53.49
69780;BME280;57052;55.602;38.096;2023-03-20T22:26:40;100091.81;;;6.07;53.82
69780;BME280;57052;55.602;38.096;2023-03-20T22:29:06;100102.97;;;6.16;53.68
69780;BME280;57052;55.602;38.096;2023-03-20T22:31:31;100091.56;;;6.09;53.86
69780;BME280;57052;55.602;38.096;2023-03-20T22:33:57;100104.59;;;6.17;53.37
69780;BME280;57052;55.602;38.096;2023-03-20T22:36:22;100107.28;;;6.17;53.74
69780;BME280;57052;55.602;38.096;2023-03-20T22:38:48;100098.41;;;6.16;53.99
69780;BME280;57052;55.602;38.096;2023-03-20T22:41:16;100096.22;;;6.13;53.40
69780;BME280;57052;55.602;38.096;2023-03-20T22:47:24;100087.25;;;6.08;54.02
69780;BME280;57052;55.602;38.096;2023-03-20T22:49:49;100094.56;;;6.12;54.13
69780;BME280;57052;55.602;38.096;2023-03-20T22:52:15;100091.88;;;6.12;53.56
69780;BME280;57052;55.602;38.096;2023-03-20T22:54:40;100088.38;;;6.12;54.09
69780;BME280;57052;55.602;38.096;2023-03-20T22:57:06;100086.50;;;6.12;53.96
69780;BME280;57052;55.602;38.096;2023-03-20T22:59:32;100081.97;;;6.13;54.00
69780;BME280;57052;55.602;38.096;2023-03-20T23:01:57;100077.41;;;6.13;54.12
69780;BME280;57052;55.602;38.096;2023-03-20T23:04:23;100067.97;;;6.11;54.04
69780;BME280;57052;55.602;38.096;2023-03-20T23:06:48;100072.03;;;6.13;53.88
69780;BME280;57052;55.602;38.096;2023-03-20T23:09:14;100059.91;;;6.11;54.02
69780;BME280;57052;55.602;38.096;2023-03-20T23:11:40;100055.31;;;6.11;54.25
69780;BME280;57052;55.602;38.096;2023-03-20T23:14:05;100053.44;;;6.12;54.14
69780;BME280;57052;55.602;38.096;2023-03-20T23:16:31;100059.66;;;6.12;54.12
69780;BME280;57052;55.602;38.096;2023-03-20T23:18:57;100060.69;;;6.11;54.10
69780;BME280;57052;55.602;38.096;2023-03-20T23:21:23;100049.06;;;6.06;54.17
69780;BME280;57052;55.602;38.096;2023-03-20T23:23:49;100034.72;;;6.00;54.26
69780;BME280;57052;55.602;38.096;2023-03-20T23:26:17;100046.69;;;6.09;53.80
69780;BME280;57052;55.602;38.096;2023-03-20T23:28:46;100054.19;;;6.07;54.62
69780;BME280;57052;55.602;38.096;2023-03-20T23:31:18;100051.50;;;6.07;53.85
69780;BME280;57052;55.602;38.096;2023-03-20T23:33:48;100054.44;;;6.06;54.52
69780;BME280;57052;55.602;38.096;2023-03-20T23:36:14;100049.06;;;6.06;54.18
69780;BME280;57052;55.602;38.096;2023-03-20T23:38:40;100037.41;;;6.00;54.13
69780;BME280;57052;55.602;38.096;2023-03-20T23:41:07;100026.59;;;5.95;54.45
69780;BME280;57052;55.602;38.096;2023-03-20T23:43:33;100032.69;;;6.07;54.41
69780;BME280;57052;55.602;38.096;2023-03-20T23:45:58;100025.94;;;6.05;54.11
69780;BME280;57052;55.602;38.096;2023-03-20T23:48:24;100023.72;;;6.02;54.55
69780;BME280;57052;55.602;38.096;2023-03-20T23:50:50;100026.28;;;6.08;54.25
69780;BME280;57052;55.602;38.096;2023-03-20T23:53:16;100013.25;;;6.00;54.46
69780;BME280;57052;55.602;38.096;2023-03-20T23:55:44;100020.91;;;6.08;54.85
69780;BME280;57052;55.602;38.096;2023-03-20T23:58:11;100022.50;;;6.09;54.54
